sensor_id;sensor_type;location;lat;lon;timestamp;P1;durP1;ratioP1;P2;durP2;ratioP2
19969;SDS011;10146;47.754;9.566;2023-02-18T00:00:24;7.43;;;5.82;;
19969;SDS011;10146;47.754;9.566;2023-02-18T00:02:50;7.38;;;5.90;;
19969;SDS011;10146;47.754;9.566;2023-02-18T00:05:16;7.35;;;5.30;;
19969;SDS011;10146;47.754;9.566;2023-02-18T00:07:42;7.10;;;5.68;;
19969;SDS011;10146;47.754;9.566;2023-02-18T00:10:11;8.25;;;5.68;;
19969;SDS011;10146;47.754;9.566;2023-02-18T00:12:37;7.45;;;5.63;;
19969;SDS011;10146;47.754;9.566;2023-02-18T00:15:04;6.13;;;4.53;;
19969;SDS011;10146;47.754;9.566;2023-02-18T00:17:30;6.53;;;4.93;;
19969;SDS011;10146;47.754;9.566;2023-02-18T00:19:56;8.75;;;4.80;;
19969;SDS011;10146;47.754;9.566;2023-02-18T00:22:22;7.65;;;4.93;;
19969;SDS011;10146;47.754;9.566;2023-02-18T00:24:48;8.95;;;5.28;;
19969;SDS011;10146;47.754;9.566;2023-02-18T00:27:13;6.20;;;4.50;;
19969;SDS011;10146;47.754;9.566;2023-02-18T00:29:39;5.63;;;4.38;;
19969;SDS011;10146;47.754;9.566;2023-02-18T00:32:04;8.40;;;5.32;;
19969;SDS011;10146;47.754;9.566;2023-02-18T00:34:30;5.18;;;4.68;;
19969;SDS011;10146;47.754;9.566;2023-02-18T00:36:56;5.25;;;4.47;;
19969;SDS011;10146;47.754;9.566;2023-02-18T00:39:22;5.50;;;4.65;;
19969;SDS011;10146;47.754;9.566;2023-02-18T00:41:48;4.85;;;4.28;;
19969;SDS011;10146;47.754;9.566;2023-02-18T00:44:13;5.60;;;4.30;;
19969;SDS011;10146;47.754;9.566;2023-02-18T00:46:39;6.13;;;4.70;;
19969;SDS011;10146;47.754;9.566;2023-02-18T00:49:05;5.25;;;4.50;;
19969;SDS011;10146;47.754;9.566;2023-02-18T00:51:31;5.63;;;4.32;;
19969;SDS011;10146;47.754;9.566;2023-02-18T00:53:57;6.00;;;4.28;;
19969;SDS011;10146;47.754;9.566;2023-02-18T00:56:23;4.85;;;4.20;;
19969;SDS011;10146;47.754;9.566;2023-02-18T00:58:49;5.13;;;4.55;;
19969;SDS011;10146;47.754;9.566;2023-02-18T01:01:16;5.72;;;4.40;;
19969;SDS011;10146;47.754;9.566;2023-02-18T01:03:42;4.95;;;4.40;;
19969;SDS011;10146;47.754;9.566;2023-02-18T01:06:09;6.80;;;4.53;;
19969;SDS011;10146;47.754;9.566;2023-02-18T01:08:35;4.78;;;4.32;;
19969;SDS011;10146;47.754;9.566;2023-02-18T01:11:02;7.40;;;4.90;;
19969;SDS011;10146;47.754;9.566;2023-02-18T01:13:28;5.05;;;4.53;;
19969;SDS011;10146;47.754;9.566;2023-02-18T01:15:54;5.70;;;4.72;;
19969;SDS011;10146;47.754;9.566;2023-02-18T01:18:20;4.93;;;4.25;;
19969;SDS011;10146;47.754;9.566;2023-02-18T01:20:46;5.93;;;4.65;;
19969;SDS011;10146;47.754;9.566;2023-02-18T01:23:12;5.38;;;4.22;;
19969;SDS011;10146;47.754;9.566;2023-02-18T01:25:38;5.78;;;4.30;;
19969;SDS011;10146;47.754;9.566;2023-02-18T01:28:05;6.30;;;3.90;;
19969;SDS011;10146;47.754;9.566;2023-02-18T01:30:32;4.60;;;4.20;;
19969;SDS011;10146;47.754;9.566;2023-02-18T01:32:58;4.22;;;3.83;;
19969;SDS011;10146;47.754;9.566;2023-02-18T01:35:24;3.95;;;3.55;;
19969;SDS011;10146;47.754;9.566;2023-02-18T01:37:50;7.25;;;3.75;;
19969;SDS011;10146;47.754;9.566;2023-02-18T01:40:17;3.75;;;3.30;;
19969;SDS011;10146;47.754;9.566;2023-02-18T01:42:45;4.10;;;3.70;;
19969;SDS011;10146;47.754;9.566;2023-02-18T01:48:03;4.50;;;3.10;;
19969;SDS011;10146;47.754;9.566;2023-02-18T01:51:07;3.35;;;3.00;;
19969;SDS011;10146;47.754;9.566;2023-02-18T01:54:10;4.38;;;3.60;;
19969;SDS011;10146;47.754;9.566;2023-02-18T01:59:44;4.32;;;3.25;;
19969;SDS011;10146;47.754;9.566;2023-02-18T02:02:14;4.03;;;3.08;;
19969;SDS011;10146;47.754;9.566;2023-02-18T02:04:43;4.60;;;2.83;;
19969;SDS011;10146;47.754;9.566;2023-02-18T02:07:09;4.55;;;3.00;;
19969;SDS011;10146;47.754;9.566;2023-02-18T02:09:36;3.38;;;3.08;;
19969;SDS011;10146;47.754;9.566;2023-02-18T02:17:36;4.47;;;3.55;;
19969;SDS011;10146;47.754;9.566;2023-02-18T02:20:19;4.22;;;3.55;;
19969;SDS011;10146;47.754;9.566;2023-02-18T02:25:39;3.88;;;3.55;;
19969;SDS011;10146;47.754;9.566;2023-02-18T02:28:20;5.15;;;4.03;;
19969;SDS011;10146;47.754;9.566;2023-02-18T02:31:06;4.43;;;4.00;;
19969;SDS011;10146;47.754;9.566;2023-02-18T02:36:47;6.40;;;4.13;;
19969;SDS011;10146;47.754;9.566;2023-02-18T02:45:09;4.80;;;4.30;;
19969;SDS011;10146;47.754;9.566;2023-02-18T02:48:00;4.85;;;4.38;;
19969;SDS011;10146;47.754;9.566;2023-02-18T02:50:46;5.05;;;4.28;;
19969;SDS011;10146;47.754;9.566;2023-02-18T02:53:34;4.57;;;4.18;;
19969;SDS011;10146;47.754;9.566;2023-02-18T02:56:01;4.68;;;4.28;;
19969;SDS011;10146;47.754;9.566;2023-02-18T02:58:27;5.25;;;4.15;;
19969;SDS011;10146;47.754;9.566;2023-02-18T03:01:00;4.65;;;3.83;;
19969;SDS011;10146;47.754;9.566;2023-02-18T03:03:44;5.28;;;4.20;;
19969;SDS011;10146;47.754;9.566;2023-02-18T03:06:18;7.03;;;4.22;;
19969;SDS011;10146;47.754;9.566;2023-02-18T03:18:06;4.05;;;3.60;;
19969;SDS011;10146;47.754;9.566;2023-02-18T03:20:40;4.60;;;3.90;;
19969;SDS011;10146;47.754;9.566;2023-02-18T03:23:15;4.00;;;3.60;;
19969;SDS011;10146;47.754;9.566;2023-02-18T03:25:44;4.07;;;3.58;;
19969;SDS011;10146;47.754;9.566;2023-02-18T03:28:13;3.45;;;3.15;;
19969;SDS011;10146;47.754;9.566;2023-02-18T03:30:43;3.58;;;3.10;;
19969;SDS011;10146;47.754;9.566;2023-02-18T03:33:14;3.60;;;3.28;;
19969;SDS011;10146;47.754;9.566;2023-02-18T03:35:44;3.33;;;2.78;;
19969;SDS011;10146;47.754;9.566;2023-02-18T03:38:22;3.05;;;2.75;;
19969;SDS011;10146;47.754;9.566;2023-02-18T03:40:51;5.22;;;3.03;;
19969;SDS011;10146;47.754;9.566;2023-02-18T03:43:17;3.25;;;2.90;;
19969;SDS011;10146;47.754;9.566;2023-02-18T03:45:43;2.85;;;2.65;;
19969;SDS011;10146;47.754;9.566;2023-02-18T03:48:09;3.15;;;2.67;;
19969;SDS011;10146;47.754;9.566;2023-02-18T03:50:34;2.50;;;2.30;;
19969;SDS011;10146;47.754;9.566;2023-02-18T03:53:00;2.97;;;2.65;;
19969;SDS011;10146;47.754;9.566;2023-02-18T03:55:25;2.17;;;2.05;;
19969;SDS011;10146;47.754;9.566;2023-02-18T03:57:51;2.55;;;2.30;;
19969;SDS011;10146;47.754;9.566;2023-02-18T04:00:17;2.40;;;2.05;;
19969;SDS011;10146;47.754;9.566;2023-02-18T04:02:43;2.10;;;1.90;;
19969;SDS011;10146;47.754;9.566;2023-02-18T04:05:08;2.28;;;2.08;;
19969;SDS011;10146;47.754;9.566;2023-02-18T04:07:34;2.33;;;2.15;;
19969;SDS011;10146;47.754;9.566;2023-02-18T04:10:00;2.08;;;1.88;;
19969;SDS011;10146;47.754;9.566;2023-02-18T04:12:26;3.08;;;1.95;;
19969;SDS011;10146;47.754;9.566;2023-02-18T04:14:52;2.10;;;1.90;;
19969;SDS011;10146;47.754;9.566;2023-02-18T04:17:17;1.83;;;1.73;;
19969;SDS011;10146;47.754;9.566;2023-02-18T04:19:43;1.98;;;1.85;;
19969;SDS011;10146;47.754;9.566;2023-02-18T04:22:09;2.03;;;1.60;;
19969;SDS011;10146;47.754;9.566;2023-02-18T04:24:34;1.83;;;1.50;;
19969;SDS011;10146;47.754;9.566;2023-02-18T04:27:00;1.77;;;1.50;;
19969;SDS011;10146;47.754;9.566;2023-02-18T04:29:26;1.83;;;1.60;;
19969;SDS011;10146;47.754;9.566;2023-02-18T04:31:51;1.60;;;1.50;;
19969;SDS011;10146;47.754;9.566;2023-02-18T04:34:17;1.70;;;1.55;;
19969;SDS011;10146;47.754;9.566;2023-02-18T04:36:42;2.00;;;1.80;;
19969;SDS011;10146;47.754;9.566;2023-02-18T04:39:08;1.85;;;1.75;;
19969;SDS011;10146;47.754;9.566;2023-02-18T04:41:34;1.83;;;1.70;;
19969;SDS011;10146;47.754;9.566;2023-02-18T04:43:59;3.33;;;2.55;;
19969;SDS011;10146;47.754;9.566;2023-02-18T04:46:25;1.60;;;1.50;;
19969;SDS011;10146;47.754;9.566;2023-02-18T04:48:51;1.55;;;1.45;;
19969;SDS011;10146;47.754;9.566;2023-02-18T04:51:16;1.67;;;1.45;;
19969;SDS011;10146;47.754;9.566;2023-02-18T04:53:43;1.73;;;1.63;;
19969;SDS011;10146;47.754;9.566;2023-02-18T04:56:08;1.83;;;1.50;;
19969;SDS011;10146;47.754;9.566;2023-02-18T04:58:34;1.58;;;1.48;;
19969;SDS011;10146;47.754;9.566;2023-02-18T05:01:00;1.42;;;1.33;;
19969;SDS011;10146;47.754;9.566;2023-02-18T05:03:27;2.33;;;1.65;;
19969;SDS011;10146;47.754;9.566;2023-02-18T05:05:53;2.58;;;1.58;;
19969;SDS011;10146;47.754;9.566;2023-02-18T05:08:19;1.90;;;1.70;;
19969;SDS011;10146;47.754;9.566;2023-02-18T05:10:45;2.00;;;1.60;;
19969;SDS011;10146;47.754;9.566;2023-02-18T05:13:11;1.60;;;1.50;;
19969;SDS011;10146;47.754;9.566;2023-02-18T05:15:36;1.55;;;1.45;;
19969;SDS011;10146;47.754;9.566;2023-02-18T05:18:02;2.03;;;1.50;;
19969;SDS011;10146;47.754;9.566;2023-02-18T05:20:28;1.45;;;1.35;;
19969;SDS011;10146;47.754;9.566;2023-02-18T05:22:54;1.77;;;1.67;;
19969;SDS011;10146;47.754;9.566;2023-02-18T05:25:19;1.63;;;1.52;;
19969;SDS011;10146;47.754;9.566;2023-02-18T05:27:45;1.75;;;1.65;;
19969;SDS011;10146;47.754;9.566;2023-02-18T05:30:11;1.50;;;1.40;;
19969;SDS011;10146;47.754;9.566;2023-02-18T05:32:37;1.67;;;1.58;;
19969;SDS011;10146;47.754;9.566;2023-02-18T05:35:02;2.08;;;1.40;;
19969;SDS011;10146;47.754;9.566;2023-02-18T05:37:28;2.55;;;1.63;;
19969;SDS011;10146;47.754;9.566;2023-02-18T05:39:53;1.67;;;1.48;;
19969;SDS011;10146;47.754;9.566;2023-02-18T05:42:19;1.63;;;1.48;;
19969;SDS011;10146;47.754;9.566;2023-02-18T05:44:45;1.67;;;1.58;;
19969;SDS011;10146;47.754;9.566;2023-02-18T05:47:11;1.67;;;1.58;;
19969;SDS011;10146;47.754;9.566;2023-02-18T05:49:38;1.92;;;1.75;;
19969;SDS011;10146;47.754;9.566;2023-02-18T05:52:05;2.13;;;1.92;;
19969;SDS011;10146;47.754;9.566;2023-02-18T05:54:31;2.08;;;1.60;;
19969;SDS011;10146;47.754;9.566;2023-02-18T05:56:57;1.95;;;1.40;;
19969;SDS011;10146;47.754;9.566;2023-02-18T05:59:23;1.95;;;1.73;;
19969;SDS011;10146;47.754;9.566;2023-02-18T06:01:49;1.58;;;1.48;;
19969;SDS011;10146;47.754;9.566;2023-02-18T06:04:15;2.08;;;1.48;;
19969;SDS011;10146;47.754;9.566;2023-02-18T06:06:41;1.75;;;1.65;;
19969;SDS011;10146;47.754;9.566;2023-02-18T06:09:07;1.55;;;1.45;;
19969;SDS011;10146;47.754;9.566;2023-02-18T06:11:33;1.80;;;1.60;;
19969;SDS011;10146;47.754;9.566;2023-02-18T06:13:59;2.13;;;1.88;;
19969;SDS011;10146;47.754;9.566;2023-02-18T06:16:25;2.42;;;1.48;;
19969;SDS011;10146;47.754;9.566;2023-02-18T06:18:51;2.13;;;1.92;;
19969;SDS011;10146;47.754;9.566;2023-02-18T06:21:16;2.13;;;1.80;;
19969;SDS011;10146;47.754;9.566;2023-02-18T06:23:42;1.63;;;1.52;;
19969;SDS011;10146;47.754;9.566;2023-02-18T06:26:08;1.90;;;1.60;;
19969;SDS011;10146;47.754;9.566;2023-02-18T06:28:33;2.20;;;1.67;;
19969;SDS011;10146;47.754;9.566;2023-02-18T06:30:59;2.63;;;1.60;;
19969;SDS011;10146;47.754;9.566;2023-02-18T06:33:24;2.88;;;2.08;;
19969;SDS011;10146;47.754;9.566;2023-02-18T06:35:54;2.97;;;1.98;;
19969;SDS011;10146;47.754;9.566;2023-02-18T06:38:24;2.15;;;1.70;;
19969;SDS011;10146;47.754;9.566;2023-02-18T06:40:50;3.28;;;2.50;;
19969;SDS011;10146;47.754;9.566;2023-02-18T06:43:16;3.65;;;2.90;;
19969;SDS011;10146;47.754;9.566;2023-02-18T06:45:42;2.75;;;2.45;;
19969;SDS011;10146;47.754;9.566;2023-02-18T06:48:07;3.42;;;2.90;;
19969;SDS011;10146;47.754;9.566;2023-02-18T06:50:33;4.35;;;2.65;;
19969;SDS011;10146;47.754;9.566;2023-02-18T06:52:58;3.63;;;2.80;;
19969;SDS011;10146;47.754;9.566;2023-02-18T06:55:24;2.50;;;2.30;;
19969;SDS011;10146;47.754;9.566;2023-02-18T06:57:50;3.78;;;2.60;;
19969;SDS011;10146;47.754;9.566;2023-02-18T07:00:16;2.70;;;2.50;;
19969;SDS011;10146;47.754;9.566;2023-02-18T07:02:41;3.40;;;2.65;;
19969;SDS011;10146;47.754;9.566;2023-02-18T07:05:07;4.32;;;3.10;;
19969;SDS011;10146;47.754;9.566;2023-02-18T07:07:33;3.70;;;2.80;;
19969;SDS011;10146;47.754;9.566;2023-02-18T07:09:58;3.70;;;2.90;;
19969;SDS011;10146;47.754;9.566;2023-02-18T07:12:24;2.55;;;2.35;;
19969;SDS011;10146;47.754;9.566;2023-02-18T07:14:49;3.22;;;2.42;;
19969;SDS011;10146;47.754;9.566;2023-02-18T07:17:16;3.55;;;2.33;;
19969;SDS011;10146;47.754;9.566;2023-02-18T07:19:42;2.97;;;2.58;;
19969;SDS011;10146;47.754;9.566;2023-02-18T07:22:08;2.47;;;2.28;;
19969;SDS011;10146;47.754;9.566;2023-02-18T07:24:34;3.90;;;2.72;;
19969;SDS011;10146;47.754;9.566;2023-02-18T07:26:59;2.92;;;2.65;;
19969;SDS011;10146;47.754;9.566;2023-02-18T07:29:25;3.55;;;3.08;;
19969;SDS011;10146;47.754;9.566;2023-02-18T07:31:51;4.80;;;3.58;;
19969;SDS011;10146;47.754;9.566;2023-02-18T07:34:16;3.22;;;2.92;;
19969;SDS011;10146;47.754;9.566;2023-02-18T07:36:42;3.72;;;2.97;;
19969;SDS011;10146;47.754;9.566;2023-02-18T07:39:07;3.28;;;3.00;;
19969;SDS011;10146;47.754;9.566;2023-02-18T07:41:33;5.53;;;3.00;;
19969;SDS011;10146;47.754;9.566;2023-02-18T07:43:59;3.42;;;2.60;;
19969;SDS011;10146;47.754;9.566;2023-02-18T07:46:24;3.75;;;2.60;;
19969;SDS011;10146;47.754;9.566;2023-02-18T07:48:50;3.88;;;2.92;;
19969;SDS011;10146;47.754;9.566;2023-02-18T07:51:15;4.03;;;3.03;;
19969;SDS011;10146;47.754;9.566;2023-02-18T07:53:41;4.90;;;3.15;;
19969;SDS011;10146;47.754;9.566;2023-02-18T07:56:07;3.22;;;2.60;;
19969;SDS011;10146;47.754;9.566;2023-02-18T07:58:33;4.15;;;3.17;;
19969;SDS011;10146;47.754;9.566;2023-02-18T08:01:07;2.67;;;2.47;;
19969;SDS011;10146;47.754;9.566;2023-02-18T08:03:35;2.65;;;2.40;;
19969;SDS011;10146;47.754;9.566;2023-02-18T08:06:02;2.47;;;2.28;;
19969;SDS011;10146;47.754;9.566;2023-02-18T08:08:29;3.38;;;2.60;;
19969;SDS011;10146;47.754;9.566;2023-02-18T08:10:57;3.95;;;3.03;;
19969;SDS011;10146;47.754;9.566;2023-02-18T08:13:25;2.90;;;2.65;;
19969;SDS011;10146;47.754;9.566;2023-02-18T08:15:53;4.85;;;2.78;;
19969;SDS011;10146;47.754;9.566;2023-02-18T08:18:20;2.70;;;2.42;;
19969;SDS011;10146;47.754;9.566;2023-02-18T08:20:47;2.97;;;2.28;;
19969;SDS011;10146;47.754;9.566;2023-02-18T08:23:14;2.78;;;2.50;;
19969;SDS011;10146;47.754;9.566;2023-02-18T08:25:44;4.47;;;2.75;;
19969;SDS011;10146;47.754;9.566;2023-02-18T08:28:10;2.92;;;2.60;;
19969;SDS011;10146;47.754;9.566;2023-02-18T08:30:36;2.78;;;2.50;;
19969;SDS011;10146;47.754;9.566;2023-02-18T08:33:01;2.83;;;2.50;;
19969;SDS011;10146;47.754;9.566;2023-02-18T08:35:27;2.45;;;2.03;;
19969;SDS011;10146;47.754;9.566;2023-02-18T08:37:53;2.80;;;2.08;;
19969;SDS011;10146;47.754;9.566;2023-02-18T08:40:18;2.78;;;2.45;;
19969;SDS011;10146;47.754;9.566;2023-02-18T08:42:44;3.60;;;2.40;;
19969;SDS011;10146;47.754;9.566;2023-02-18T08:45:10;2.65;;;2.30;;
19969;SDS011;10146;47.754;9.566;2023-02-18T08:47:35;2.88;;;2.30;;
19969;SDS011;10146;47.754;9.566;2023-02-18T08:50:01;3.22;;;2.50;;
19969;SDS011;10146;47.754;9.566;2023-02-18T08:52:28;4.07;;;2.30;;
19969;SDS011;10146;47.754;9.566;2023-02-18T08:54:53;3.03;;;2.28;;
19969;SDS011;10146;47.754;9.566;2023-02-18T08:57:19;3.08;;;1.90;;
19969;SDS011;10146;47.754;9.566;2023-02-18T08:59:44;3.17;;;2.17;;
19969;SDS011;10146;47.754;9.566;2023-02-18T09:02:12;3.35;;;2.53;;
19969;SDS011;10146;47.754;9.566;2023-02-18T09:04:38;2.60;;;2.40;;
19969;SDS011;10146;47.754;9.566;2023-02-18T09:07:03;5.10;;;4.45;;
19969;SDS011;10146;47.754;9.566;2023-02-18T09:09:29;7.70;;;5.30;;
19969;SDS011;10146;47.754;9.566;2023-02-18T09:11:55;9.05;;;5.63;;
19969;SDS011;10146;47.754;9.566;2023-02-18T09:14:20;9.20;;;6.13;;
19969;SDS011;10146;47.754;9.566;2023-02-18T09:16:46;12.40;;;8.40;;
19969;SDS011;10146;47.754;9.566;2023-02-18T09:19:11;12.63;;;8.85;;
19969;SDS011;10146;47.754;9.566;2023-02-18T09:21:37;9.57;;;6.47;;
19969;SDS011;10146;47.754;9.566;2023-02-18T09:24:03;3.88;;;3.15;;
19969;SDS011;10146;47.754;9.566;2023-02-18T09:26:28;6.65;;;4.90;;
19969;SDS011;10146;47.754;9.566;2023-02-18T09:28:55;9.68;;;6.55;;
19969;SDS011;10146;47.754;9.566;2023-02-18T09:31:22;5.50;;;4.80;;
19969;SDS011;10146;47.754;9.566;2023-02-18T09:33:51;4.35;;;2.85;;
19969;SDS011;10146;47.754;9.566;2023-02-18T09:36:22;2.13;;;1.40;;
19969;SDS011;10146;47.754;9.566;2023-02-18T09:38:48;1.50;;;1.40;;
19969;SDS011;10146;47.754;9.566;2023-02-18T09:43:48;1.38;;;1.15;;
19969;SDS011;10146;47.754;9.566;2023-02-18T09:46:29;1.08;;;0.98;;
19969;SDS011;10146;47.754;9.566;2023-02-18T09:49:13;2.22;;;1.05;;
19969;SDS011;10146;47.754;9.566;2023-02-18T09:52:21;1.33;;;1.23;;
19969;SDS011;10146;47.754;9.566;2023-02-18T09:54:55;2.30;;;2.00;;
19969;SDS011;10146;47.754;9.566;2023-02-18T09:57:22;3.75;;;2.72;;
19969;SDS011;10146;47.754;9.566;2023-02-18T10:00:03;1.95;;;1.58;;
19969;SDS011;10146;47.754;9.566;2023-02-18T10:02:31;1.35;;;1.25;;
19969;SDS011;10146;47.754;9.566;2023-02-18T10:04:57;1.20;;;1.10;;
19969;SDS011;10146;47.754;9.566;2023-02-18T10:07:25;1.95;;;1.10;;
19969;SDS011;10146;47.754;9.566;2023-02-18T10:09:54;2.67;;;1.40;;
19969;SDS011;10146;47.754;9.566;2023-02-18T10:12:22;1.95;;;1.60;;
19969;SDS011;10146;47.754;9.566;2023-02-18T10:14:50;2.38;;;1.77;;
19969;SDS011;10146;47.754;9.566;2023-02-18T10:17:18;4.35;;;2.55;;
19969;SDS011;10146;47.754;9.566;2023-02-18T10:19:47;3.78;;;2.63;;
19969;SDS011;10146;47.754;9.566;2023-02-18T10:22:15;3.10;;;2.20;;
19969;SDS011;10146;47.754;9.566;2023-02-18T10:25:01;1.38;;;1.25;;
19969;SDS011;10146;47.754;9.566;2023-02-18T10:27:30;6.93;;;4.63;;
19969;SDS011;10146;47.754;9.566;2023-02-18T10:30:09;3.95;;;3.53;;
19969;SDS011;10146;47.754;9.566;2023-02-18T10:32:47;4.70;;;4.20;;
19969;SDS011;10146;47.754;9.566;2023-02-18T10:35:23;3.85;;;3.13;;
19969;SDS011;10146;47.754;9.566;2023-02-18T10:49:08;2.67;;;1.33;;
19969;SDS011;10146;47.754;9.566;2023-02-18T10:51:55;1.98;;;1.02;;
19969;SDS011;10146;47.754;9.566;2023-02-18T10:54:24;1.27;;;1.15;;
19969;SDS011;10146;47.754;9.566;2023-02-18T10:56:51;1.00;;;0.80;;
19969;SDS011;10146;47.754;9.566;2023-02-18T10:59:30;2.08;;;0.90;;
19969;SDS011;10146;47.754;9.566;2023-02-18T11:01:58;1.20;;;1.10;;
19969;SDS011;10146;47.754;9.566;2023-02-18T11:04:36;1.45;;;1.10;;
19969;SDS011;10146;47.754;9.566;2023-02-18T11:07:05;0.88;;;0.88;;
19969;SDS011;10146;47.754;9.566;2023-02-18T11:12:25;2.67;;;1.23;;
19969;SDS011;10146;47.754;9.566;2023-02-18T11:15:22;2.03;;;1.20;;
19969;SDS011;10146;47.754;9.566;2023-02-18T11:17:53;1.38;;;1.27;;
19969;SDS011;10146;47.754;9.566;2023-02-18T11:20:34;3.17;;;1.30;;
19969;SDS011;10146;47.754;9.566;2023-02-18T11:25:30;1.65;;;1.38;;
19969;SDS011;10146;47.754;9.566;2023-02-18T11:30:32;1.02;;;0.98;;
19969;SDS011;10146;47.754;9.566;2023-02-18T11:35:51;1.85;;;1.00;;
19969;SDS011;10146;47.754;9.566;2023-02-18T11:38:32;1.60;;;1.20;;
19969;SDS011;10146;47.754;9.566;2023-02-18T11:41:07;1.30;;;1.20;;
19969;SDS011;10146;47.754;9.566;2023-02-18T11:43:35;1.98;;;1.52;;
19969;SDS011;10146;47.754;9.566;2023-02-18T11:46:14;2.65;;;1.55;;
19969;SDS011;10146;47.754;9.566;2023-02-18T11:48:41;1.90;;;1.27;;
19969;SDS011;10146;47.754;9.566;2023-02-18T11:51:17;2.75;;;1.50;;
19969;SDS011;10146;47.754;9.566;2023-02-18T11:53:57;1.52;;;1.42;;
19969;SDS011;10146;47.754;9.566;2023-02-18T11:56:27;1.85;;;1.45;;
19969;SDS011;10146;47.754;9.566;2023-02-18T11:58:54;1.40;;;1.30;;
19969;SDS011;10146;47.754;9.566;2023-02-18T12:04:21;3.58;;;1.70;;
19969;SDS011;10146;47.754;9.566;2023-02-18T12:07:14;4.55;;;2.08;;
19969;SDS011;10146;47.754;9.566;2023-02-18T12:09:51;2.42;;;1.27;;
19969;SDS011;10146;47.754;9.566;2023-02-18T12:12:31;3.83;;;1.30;;
19969;SDS011;10146;47.754;9.566;2023-02-18T12:15:15;2.58;;;1.30;;
19969;SDS011;10146;47.754;9.566;2023-02-18T12:17:54;1.42;;;1.33;;
19969;SDS011;10146;47.754;9.566;2023-02-18T12:23:29;1.70;;;1.20;;
19969;SDS011;10146;47.754;9.566;2023-02-18T12:26:20;1.58;;;1.48;;
19969;SDS011;10146;47.754;9.566;2023-02-18T12:29:17;3.20;;;1.80;;
19969;SDS011;10146;47.754;9.566;2023-02-18T12:32:03;1.88;;;1.52;;
19969;SDS011;10146;47.754;9.566;2023-02-18T12:37:37;3.40;;;1.20;;
19969;SDS011;10146;47.754;9.566;2023-02-18T12:42:56;2.30;;;1.30;;
19969;SDS011;10146;47.754;9.566;2023-02-18T12:49:03;1.70;;;1.40;;
19969;SDS011;10146;47.754;9.566;2023-02-18T13:07:55;1.63;;;0.98;;
19969;SDS011;10146;47.754;9.566;2023-02-18T13:10:45;1.20;;;1.10;;
19969;SDS011;10146;47.754;9.566;2023-02-18T13:13:33;1.98;;;1.20;;
19969;SDS011;10146;47.754;9.566;2023-02-18T13:16:08;1.58;;;1.10;;
19969;SDS011;10146;47.754;9.566;2023-02-18T13:18:38;1.00;;;1.00;;
19969;SDS011;10146;47.754;9.566;2023-02-18T13:21:09;2.58;;;1.10;;
19969;SDS011;10146;47.754;9.566;2023-02-18T13:23:50;1.58;;;1.40;;
19969;SDS011;10146;47.754;9.566;2023-02-18T13:26:31;1.20;;;1.10;;
19969;SDS011;10146;47.754;9.566;2023-02-18T13:39:51;1.55;;;1.30;;
19969;SDS011;10146;47.754;9.566;2023-02-18T13:47:38;1.38;;;1.20;;
19969;SDS011;10146;47.754;9.566;2023-02-18T13:52:46;1.98;;;1.30;;
19969;SDS011;10146;47.754;9.566;2023-02-18T13:55:19;1.20;;;1.10;;
19969;SDS011;10146;47.754;9.566;2023-02-18T13:57:48;2.13;;;1.38;;
19969;SDS011;10146;47.754;9.566;2023-02-18T14:00:24;1.98;;;1.50;;
19969;SDS011;10146;47.754;9.566;2023-02-18T14:03:18;2.33;;;1.35;;
19969;SDS011;10146;47.754;9.566;2023-02-18T14:06:00;1.23;;;1.13;;
19969;SDS011;10146;47.754;9.566;2023-02-18T14:08:30;2.00;;;1.20;;
19969;SDS011;10146;47.754;9.566;2023-02-18T14:11:32;1.00;;;0.80;;
19969;SDS011;10146;47.754;9.566;2023-02-18T14:19:54;2.88;;;1.08;;
19969;SDS011;10146;47.754;9.566;2023-02-18T14:22:44;1.88;;;0.90;;
19969;SDS011;10146;47.754;9.566;2023-02-18T14:27:45;0.80;;;0.75;;
19969;SDS011;10146;47.754;9.566;2023-02-18T14:30:17;0.60;;;0.60;;
19969;SDS011;10146;47.754;9.566;2023-02-18T14:32:49;1.05;;;0.60;;
19969;SDS011;10146;47.754;9.566;2023-02-18T14:35:19;0.40;;;0.40;;
19969;SDS011;10146;47.754;9.566;2023-02-18T14:38:09;0.93;;;0.50;;
19969;SDS011;10146;47.754;9.566;2023-02-18T14:41:08;0.60;;;0.60;;
19969;SDS011;10146;47.754;9.566;2023-02-18T14:43:54;0.68;;;0.60;;
19969;SDS011;10146;47.754;9.566;2023-02-18T14:49:58;1.73;;;0.60;;
19969;SDS011;10146;47.754;9.566;2023-02-18T14:54:59;0.52;;;0.52;;
19969;SDS011;10146;47.754;9.566;2023-02-18T14:57:36;0.57;;;0.57;;
19969;SDS011;10146;47.754;9.566;2023-02-18T15:00:16;0.70;;;0.70;;
19969;SDS011;10146;47.754;9.566;2023-02-18T15:02:43;0.50;;;0.50;;
19969;SDS011;10146;47.754;9.566;2023-02-18T15:07:54;1.15;;;0.50;;
19969;SDS011;10146;47.754;9.566;2023-02-18T15:10:20;0.50;;;0.50;;
19969;SDS011;10146;47.754;9.566;2023-02-18T15:12:45;1.35;;;0.40;;
19969;SDS011;10146;47.754;9.566;2023-02-18T15:15:12;1.38;;;0.63;;
19969;SDS011;10146;47.754;9.566;2023-02-18T15:17:43;0.50;;;0.50;;
19969;SDS011;10146;47.754;9.566;2023-02-18T15:20:11;1.10;;;0.60;;
19969;SDS011;10146;47.754;9.566;2023-02-18T15:22:38;0.93;;;0.52;;
19969;SDS011;10146;47.754;9.566;2023-02-18T15:25:05;1.42;;;0.50;;
19969;SDS011;10146;47.754;9.566;2023-02-18T15:27:32;1.15;;;0.68;;
19969;SDS011;10146;47.754;9.566;2023-02-18T15:30:19;0.40;;;0.40;;
19969;SDS011;10146;47.754;9.566;2023-02-18T15:32:48;0.60;;;0.60;;
19969;SDS011;10146;47.754;9.566;2023-02-18T15:35:17;0.98;;;0.50;;
19969;SDS011;10146;47.754;9.566;2023-02-18T15:37:45;1.40;;;0.68;;
19969;SDS011;10146;47.754;9.566;2023-02-18T15:40:15;0.50;;;0.50;;
19969;SDS011;10146;47.754;9.566;2023-02-18T15:42:40;0.60;;;0.60;;
19969;SDS011;10146;47.754;9.566;2023-02-18T15:47:49;1.00;;;0.85;;
19969;SDS011;10146;47.754;9.566;2023-02-18T15:50:25;0.60;;;0.60;;
19969;SDS011;10146;47.754;9.566;2023-02-18T15:52:53;1.05;;;0.60;;
19969;SDS011;10146;47.754;9.566;2023-02-18T15:58:04;0.65;;;0.65;;
19969;SDS011;10146;47.754;9.566;2023-02-18T16:01:22;0.68;;;0.68;;
19969;SDS011;10146;47.754;9.566;2023-02-18T16:03:28;0.55;;;0.55;;
19969;SDS011;10146;47.754;9.566;2023-02-18T16:08:45;0.98;;;0.70;;
19969;SDS011;10146;47.754;9.566;2023-02-18T16:11:46;0.73;;;0.70;;
19969;SDS011;10146;47.754;9.566;2023-02-18T16:14:26;1.92;;;0.70;;
19969;SDS011;10146;47.754;9.566;2023-02-18T16:17:05;0.63;;;0.63;;
19969;SDS011;10146;47.754;9.566;2023-02-18T16:19:32;0.70;;;0.70;;
19969;SDS011;10146;47.754;9.566;2023-02-18T16:22:02;1.00;;;0.82;;
19969;SDS011;10146;47.754;9.566;2023-02-18T16:24:30;1.73;;;0.90;;
19969;SDS011;10146;47.754;9.566;2023-02-18T16:26:59;0.70;;;0.70;;
19969;SDS011;10146;47.754;9.566;2023-02-18T16:29:31;1.45;;;0.77;;
19969;SDS011;10146;47.754;9.566;2023-02-18T16:32:00;1.10;;;1.00;;
19969;SDS011;10146;47.754;9.566;2023-02-18T16:34:25;1.05;;;0.80;;
19969;SDS011;10146;47.754;9.566;2023-02-18T16:36:51;1.65;;;0.95;;
19969;SDS011;10146;47.754;9.566;2023-02-18T16:39:36;1.55;;;0.90;;
19969;SDS011;10146;47.754;9.566;2023-02-18T16:42:02;1.45;;;0.90;;
19969;SDS011;10146;47.754;9.566;2023-02-18T16:44:30;1.10;;;1.00;;
19969;SDS011;10146;47.754;9.566;2023-02-18T16:46:57;0.98;;;0.88;;
19969;SDS011;10146;47.754;9.566;2023-02-18T16:49:23;1.20;;;0.98;;
19969;SDS011;10146;47.754;9.566;2023-02-18T16:51:48;1.25;;;0.90;;
19969;SDS011;10146;47.754;9.566;2023-02-18T16:54:14;0.93;;;0.93;;
19969;SDS011;10146;47.754;9.566;2023-02-18T16:56:40;0.90;;;0.90;;
19969;SDS011;10146;47.754;9.566;2023-02-18T16:59:06;1.30;;;0.82;;
19969;SDS011;10146;47.754;9.566;2023-02-18T17:04:09;0.85;;;0.85;;
19969;SDS011;10146;47.754;9.566;2023-02-18T17:06:36;1.13;;;1.00;;
19969;SDS011;10146;47.754;9.566;2023-02-18T17:09:05;1.95;;;1.10;;
19969;SDS011;10146;47.754;9.566;2023-02-18T17:11:44;1.10;;;1.00;;
19969;SDS011;10146;47.754;9.566;2023-02-18T17:14:18;2.58;;;1.20;;
19969;SDS011;10146;47.754;9.566;2023-02-18T17:16:45;1.73;;;1.30;;
19969;SDS011;10146;47.754;9.566;2023-02-18T17:19:11;0.98;;;0.98;;